Historyczne dane pomiarowe

Dodano dane terminowe – wersja testowa.

Dane z okresu 1951-2019

Wersja bazy: 1.34 [2019-03-16, lista zmian], aktualizacja planowana na 2019-04-15

Dane meteo z obszaru Polski uzyskane na podstawie danych udostępnionych przez Instytut Meteorologii i Gospodarki Wodnej – Państwowy Instytut Badawczy.

 

Wybierz Datę:    

       

TemperaturaWilgotnośćWiatrCiśnienieOpadyŚniegCzas trwania zjawisk
 Stacja t tx tn tng RH VA  wxwx mslp ppp RRR   cm mm wxwxwxwxwxwxwx
1961-02-14 3.2 5.0 -1.0 -4.3 97.5- 8.0 2.0---- 0.2------------
1961-02-15 6.5 11.2 1.8 -1.0 86.5- 2.7 1.7---- 0.0------------
1961-02-16 4.8 7.5 3.4 0.7 93.5- 8.0 4.0---- 0.0------------
1961-02-17 2.4 6.2 -0.5 3.6 94.5- 5.3 1.7---- 0.0------------
1961-02-18 4.7 12.4 -2.3 -5.1 83.3- 2.7 1.7---- 0.0------------
1961-02-19 3.4 6.0 2.0 -0.4 94.8- 8.0 3.0---- 1.3------------
1961-02-20 4.2 5.9 3.3 3.2 89.8- 8.0 1.0---- 0.0------------
1961-02-21 2.9 7.9 1.2 1.4 88.8- 5.3 1.0---- 0.0------------
1961-02-22 1.3 8.0 -2.3 -6.4 91.8- 0.0 2.3---- 0.0------------
1961-02-23 1.1 2.7 -1.0 -2.4 97.5- 8.0 2.3---- 0.0------------
1961-02-24 1.0 5.4 0.0 1.2 95.0- 5.3 2.7---- 0.0------------
1961-02-25 0.2 3.1 -1.7 -4.1 93.8- 6.3 9.3---- 0.0------------
1961-02-26 2.6 8.1 -1.7 -3.2 83.5- 2.7 2.7---- 0.0------------
1961-02-27 6.5 10.5 -0.3 -2.7 81.3- 6.3 3.7---- 0.6------------
1961-02-28 6.4 10.9 2.9 5.2 79.8- 8.0 9.0---- 1.7------------
1961-03-01 4.1 5.7 2.5- 84.8- 7.7 3.7---- 1.1------------
1961-03-02 2.9 4.9 0.0- 83.3- 7.7 3.7---- 0.9------------
1961-03-03 5.0 6.9 2.0- 97.0- 8.0 1.3---- 1.2------------
1961-03-04 4.3 8.3 3.3- 92.0- 6.0 1.7---- 0.0------------
1961-03-05 4.8 7.7 2.7- 90.0- 7.3 4.0---- 0.0------------
1961-03-06 3.2 7.5 2.0- 94.0- 7.7 3.0---- 0.0------------
1961-03-07 6.5 13.7 -0.5- 79.8- 2.7 1.7---- 0.0------------
1961-03-08 7.5 13.2 1.8- 75.5- 2.7 4.3---- 0.0------------
1961-03-09 9.2 14.8 2.9- 67.8- 1.0 3.7---- 0.0------------
1961-03-10 9.7 17.5 2.0- 58.3- 0.0 2.0---- 0.0------------
1961-03-11 8.4 10.6 5.6- 78.3- 5.3 8.0---- 0.0------------
1961-03-12 12.2 15.2 6.7- 55.0- 8.0 11.7---- 2.8------------
1961-03-13 5.1 14.6 2.9- 62.5- 4.0 9.7---- 0.2------------
1961-03-14 7.3 9.4 2.6- 92.0- 8.0 3.7---- 4.2------------
1961-03-15 10.5 13.6 8.5- 62.8- 3.3 10.0---- 0.0------------
147.6 ms

 

Źródłem pochodzenia danych jest Instytut Meteorologii i Gospodarki Wodnej – Państwowy Instytut Badawczy. Dane Instytutu Meteorologii i Gospodarki Wodnej – Państwowego Instytutu Badawczego zostały przetworzone.

Dane źródłowe można odnaleźć na stronie https://dane.imgw.pl